Terminal Aerodrome Forecast
Issued by NWS

Home | Current Version | Previous Version | Text Only | Print | Product List | Glossary On
Versions: 1 2 3 4 5 6 7 8 9 10 11 12 13 14 15 16 17 18 19 20
087
FTUS44 KLZK 061414 AAA
TAFHOT
TAF AMD
KHOT 061414Z 0614/0712 26003KT P6SM OVC021
     FM061800 34008KT P6SM BKN025
     FM062200 36006KT P6SM OVC050=

USA.gov is the U.S. government's official web portal to all federal, state and local government web resources and services.